sensor_id;sensor_type;location;lat;lon;timestamp;pressure;altitude;pressure_sealevel;temperature;humidity
77019;BME280;66044;53.142;17.962;2023-12-20T00:00:26;100163.45;;;7.26;81.95
77019;BME280;66044;53.142;17.962;2023-12-20T00:03:12;100159.64;;;7.26;82.08
77019;BME280;66044;53.142;17.962;2023-12-20T00:05:39;100163.06;;;7.26;82.10
77019;BME280;66044;53.142;17.962;2023-12-20T00:08:07;100165.93;;;7.27;82.02
77019;BME280;66044;53.142;17.962;2023-12-20T00:10:33;100163.42;;;7.27;81.99
77019;BME280;66044;53.142;17.962;2023-12-20T00:13:00;100157.16;;;7.27;82.05
77019;BME280;66044;53.142;17.962;2023-12-20T00:15:26;100161.19;;;7.28;81.75
77019;BME280;66044;53.142;17.962;2023-12-20T00:17:53;100156.65;;;7.29;82.24
77019;BME280;66044;53.142;17.962;2023-12-20T00:20:19;100159.10;;;7.30;81.95
77019;BME280;66044;53.142;17.962;2023-12-20T00:22:46;100157.87;;;7.31;82.01
77019;BME280;66044;53.142;17.962;2023-12-20T00:25:12;100156.61;;;7.32;82.02
77019;BME280;66044;53.142;17.962;2023-12-20T00:27:39;100154.45;;;7.31;81.95
77019;BME280;66044;53.142;17.962;2023-12-20T00:30:06;100152.43;;;7.31;81.97
77019;BME280;66044;53.142;17.962;2023-12-20T00:32:32;100150.77;;;7.32;82.23
77019;BME280;66044;53.142;17.962;2023-12-20T00:34:59;100147.09;;;7.32;82.13
77019;BME280;66044;53.142;17.962;2023-12-20T00:37:26;100141.78;;;7.33;82.23
77019;BME280;66044;53.142;17.962;2023-12-20T00:39:52;100138.77;;;7.34;81.93
77019;BME280;66044;53.142;17.962;2023-12-20T00:42:19;100141.53;;;7.34;81.83
77019;BME280;66044;53.142;17.962;2023-12-20T00:44:45;100145.36;;;7.33;82.09
77019;BME280;66044;53.142;17.962;2023-12-20T00:47:12;100146.61;;;7.32;81.81
77019;BME280;66044;53.142;17.962;2023-12-20T00:49:39;100149.10;;;7.33;82.03
77019;BME280;66044;53.142;17.962;2023-12-20T00:52:05;100146.69;;;7.33;81.86
77019;BME280;66044;53.142;17.962;2023-12-20T00:54:32;100141.91;;;7.34;81.91
77019;BME280;66044;53.142;17.962;2023-12-20T00:56:58;100139.52;;;7.35;82.12
77019;BME280;66044;53.142;17.962;2023-12-20T00:59:25;100140.06;;;7.35;82.09
77019;BME280;66044;53.142;17.962;2023-12-20T01:01:52;100142.36;;;7.35;81.77
77019;BME280;66044;53.142;17.962;2023-12-20T01:04:18;100137.86;;;7.36;81.80
77019;BME280;66044;53.142;17.962;2023-12-20T01:06:45;100133.55;;;7.37;81.90
77019;BME280;66044;53.142;17.962;2023-12-20T01:09:12;100130.73;;;7.37;82.05
77019;BME280;66044;53.142;17.962;2023-12-20T01:11:38;100129.44;;;7.37;82.13
77019;BME280;66044;53.142;17.962;2023-12-20T01:14:05;100125.29;;;7.36;81.94
77019;BME280;66044;53.142;17.962;2023-12-20T01:16:31;100123.33;;;7.37;82.01
77019;BME280;66044;53.142;17.962;2023-12-20T01:18:57;100120.71;;;7.38;82.03
77019;BME280;66044;53.142;17.962;2023-12-20T01:21:25;100119.95;;;7.38;82.25
77019;BME280;66044;53.142;17.962;2023-12-20T01:23:51;100118.88;;;7.39;81.97
77019;BME280;66044;53.142;17.962;2023-12-20T01:26:18;100111.06;;;7.39;82.14
77019;BME280;66044;53.142;17.962;2023-12-20T01:28:44;100117.60;;;7.39;82.23
77019;BME280;66044;53.142;17.962;2023-12-20T01:31:11;100114.23;;;7.39;82.18
77019;BME280;66044;53.142;17.962;2023-12-20T01:33:37;100110.21;;;7.39;82.10
77019;BME280;66044;53.142;17.962;2023-12-20T01:36:04;100112.48;;;7.38;81.83
77019;BME280;66044;53.142;17.962;2023-12-20T01:38:30;100108.58;;;7.38;81.88
77019;BME280;66044;53.142;17.962;2023-12-20T01:40:57;100102.92;;;7.40;82.29
77019;BME280;66044;53.142;17.962;2023-12-20T01:43:23;100098.23;;;7.39;82.22
77019;BME280;66044;53.142;17.962;2023-12-20T01:45:50;100094.12;;;7.40;82.16
77019;BME280;66044;53.142;17.962;2023-12-20T01:48:16;100097.89;;;7.41;82.07
77019;BME280;66044;53.142;17.962;2023-12-20T01:50:43;100096.41;;;7.40;82.00
77019;BME280;66044;53.142;17.962;2023-12-20T01:53:12;100093.64;;;7.37;81.96
77019;BME280;66044;53.142;17.962;2023-12-20T01:55:39;100090.89;;;7.37;82.03
77019;BME280;66044;53.142;17.962;2023-12-20T01:58:09;100088.37;;;7.37;82.06
77019;BME280;66044;53.142;17.962;2023-12-20T02:00:37;100086.20;;;7.38;81.84
77019;BME280;66044;53.142;17.962;2023-12-20T02:03:04;100085.81;;;7.38;82.18
77019;BME280;66044;53.142;17.962;2023-12-20T02:05:31;100090.13;;;7.37;82.03
77019;BME280;66044;53.142;17.962;2023-12-20T02:07:58;100088.96;;;7.37;82.36
77019;BME280;66044;53.142;17.962;2023-12-20T02:10:25;100090.80;;;7.37;82.10
77019;BME280;66044;53.142;17.962;2023-12-20T02:12:51;100092.52;;;7.38;82.01
77019;BME280;66044;53.142;17.962;2023-12-20T02:15:18;100088.90;;;7.39;82.18
77019;BME280;66044;53.142;17.962;2023-12-20T02:17:46;100083.37;;;7.40;82.36
77019;BME280;66044;53.142;17.962;2023-12-20T02:20:13;100077.27;;;7.40;82.20
77019;BME280;66044;53.142;17.962;2023-12-20T02:22:40;100077.46;;;7.39;82.05
77019;BME280;66044;53.142;17.962;2023-12-20T02:25:07;100075.39;;;7.41;82.29
77019;BME280;66044;53.142;17.962;2023-12-20T02:27:34;100076.55;;;7.41;82.07
77019;BME280;66044;53.142;17.962;2023-12-20T02:30:01;100073.13;;;7.42;82.18
77019;BME280;66044;53.142;17.962;2023-12-20T02:32:28;100070.33;;;7.42;82.20
77019;BME280;66044;53.142;17.962;2023-12-20T02:34:55;100070.86;;;7.42;82.20
77019;BME280;66044;53.142;17.962;2023-12-20T02:37:22;100070.23;;;7.44;82.19
77019;BME280;66044;53.142;17.962;2023-12-20T02:39:48;100064.83;;;7.44;82.16
77019;BME280;66044;53.142;17.962;2023-12-20T02:42:14;100069.10;;;7.44;82.31
77019;BME280;66044;53.142;17.962;2023-12-20T02:44:41;100064.69;;;7.44;82.51
77019;BME280;66044;53.142;17.962;2023-12-20T02:47:07;100063.58;;;7.45;82.20
77019;BME280;66044;53.142;17.962;2023-12-20T02:49:34;100061.13;;;7.47;82.27
77019;BME280;66044;53.142;17.962;2023-12-20T02:52:00;100061.50;;;7.49;82.29
77019;BME280;66044;53.142;17.962;2023-12-20T02:54:26;100065.02;;;7.50;82.19
77019;BME280;66044;53.142;17.962;2023-12-20T02:56:53;100065.88;;;7.51;82.30
77019;BME280;66044;53.142;17.962;2023-12-20T02:59:20;100062.25;;;7.50;82.16
77019;BME280;66044;53.142;17.962;2023-12-20T03:01:47;100059.80;;;7.50;82.04
77019;BME280;66044;53.142;17.962;2023-12-20T03:04:13;100063.10;;;7.52;82.26
77019;BME280;66044;53.142;17.962;2023-12-20T03:06:40;100059.89;;;7.52;82.00
77019;BME280;66044;53.142;17.962;2023-12-20T03:09:06;100055.94;;;7.53;82.20
77019;BME280;66044;53.142;17.962;2023-12-20T03:11:32;100054.02;;;7.52;81.93
77019;BME280;66044;53.142;17.962;2023-12-20T03:13:59;100055.35;;;7.53;82.10
77019;BME280;66044;53.142;17.962;2023-12-20T03:16:25;100054.71;;;7.53;82.03
77019;BME280;66044;53.142;17.962;2023-12-20T03:18:52;100052.54;;;7.51;82.16
77019;BME280;66044;53.142;17.962;2023-12-20T03:21:18;100055.91;;;7.52;81.91
77019;BME280;66044;53.142;17.962;2023-12-20T03:23:45;100056.16;;;7.53;82.18
77019;BME280;66044;53.142;17.962;2023-12-20T03:26:11;100057.48;;;7.53;81.88
77019;BME280;66044;53.142;17.962;2023-12-20T03:28:38;100052.05;;;7.53;81.87
77019;BME280;66044;53.142;17.962;2023-12-20T03:31:04;100052.73;;;7.53;82.00
77019;BME280;66044;53.142;17.962;2023-12-20T03:33:31;100054.39;;;7.52;81.75
77019;BME280;66044;53.142;17.962;2023-12-20T03:35:57;100056.55;;;7.53;81.97
77019;BME280;66044;53.142;17.962;2023-12-20T03:38:23;100054.44;;;7.53;81.92
77019;BME280;66044;53.142;17.962;2023-12-20T03:40:50;100050.81;;;7.54;82.14
77019;BME280;66044;53.142;17.962;2023-12-20T03:43:17;100051.41;;;7.54;81.92
77019;BME280;66044;53.142;17.962;2023-12-20T03:45:43;100054.61;;;7.56;81.91
77019;BME280;66044;53.142;17.962;2023-12-20T03:48:10;100056.29;;;7.57;81.86
77019;BME280;66044;53.142;17.962;2023-12-20T03:50:36;100052.84;;;7.57;81.62
77019;BME280;66044;53.142;17.962;2023-12-20T03:53:03;100050.16;;;7.56;81.91
77019;BME280;66044;53.142;17.962;2023-12-20T03:55:30;100051.48;;;7.55;81.73
77019;BME280;66044;53.142;17.962;2023-12-20T03:57:56;100050.91;;;7.55;81.80
77019;BME280;66044;53.142;17.962;2023-12-20T04:00:22;100049.74;;;7.54;81.78
77019;BME280;66044;53.142;17.962;2023-12-20T04:02:49;100046.22;;;7.54;81.52
77019;BME280;66044;53.142;17.962;2023-12-20T04:05:15;100045.02;;;7.52;81.60
77019;BME280;66044;53.142;17.962;2023-12-20T04:07:42;100043.17;;;7.48;81.74
77019;BME280;66044;53.142;17.962;2023-12-20T04:10:08;100049.08;;;7.46;81.55
77019;BME280;66044;53.142;17.962;2023-12-20T04:12:37;100046.08;;;7.45;81.71
77019;BME280;66044;53.142;17.962;2023-12-20T04:15:04;100049.30;;;7.43;81.43
77019;BME280;66044;53.142;17.962;2023-12-20T04:17:35;100052.10;;;7.41;81.63
77019;BME280;66044;53.142;17.962;2023-12-20T04:20:02;100046.40;;;7.39;81.77
77019;BME280;66044;53.142;17.962;2023-12-20T04:22:29;100045.68;;;7.41;81.73
77019;BME280;66044;53.142;17.962;2023-12-20T04:24:55;100046.69;;;7.41;81.71
77019;BME280;66044;53.142;17.962;2023-12-20T04:27:22;100047.66;;;7.41;81.63
77019;BME280;66044;53.142;17.962;2023-12-20T04:29:48;100044.73;;;7.40;81.56
77019;BME280;66044;53.142;17.962;2023-12-20T04:32:14;100040.62;;;7.38;81.26
77019;BME280;66044;53.142;17.962;2023-12-20T04:34:41;100042.55;;;7.36;81.34
77019;BME280;66044;53.142;17.962;2023-12-20T04:37:07;100040.48;;;7.36;81.51
77019;BME280;66044;53.142;17.962;2023-12-20T04:39:36;100045.14;;;7.36;81.23
77019;BME280;66044;53.142;17.962;2023-12-20T04:42:04;100048.38;;;7.35;81.59
77019;BME280;66044;53.142;17.962;2023-12-20T04:44:30;100050.42;;;7.33;81.16
77019;BME280;66044;53.142;17.962;2023-12-20T04:46:57;100045.08;;;7.31;81.15
77019;BME280;66044;53.142;17.962;2023-12-20T04:49:23;100044.41;;;7.30;81.24
77019;BME280;66044;53.142;17.962;2023-12-20T04:51:50;100047.24;;;7.30;81.05
77019;BME280;66044;53.142;17.962;2023-12-20T04:54:16;100052.84;;;7.29;80.91
77019;BME280;66044;53.142;17.962;2023-12-20T04:56:42;100052.84;;;7.27;81.09
77019;BME280;66044;53.142;17.962;2023-12-20T04:59:10;100057.27;;;7.25;81.05
77019;BME280;66044;53.142;17.962;2023-12-20T05:01:36;100055.38;;;7.24;80.98
77019;BME280;66044;53.142;17.962;2023-12-20T05:04:03;100057.63;;;7.21;80.83
77019;BME280;66044;53.142;17.962;2023-12-20T05:06:30;100060.95;;;7.19;80.68
77019;BME280;66044;53.142;17.962;2023-12-20T05:08:56;100062.40;;;7.18;80.87
77019;BME280;66044;53.142;17.962;2023-12-20T05:11:22;100064.63;;;7.17;80.96
77019;BME280;66044;53.142;17.962;2023-12-20T05:13:49;100059.60;;;7.16;80.81
77019;BME280;66044;53.142;17.962;2023-12-20T05:16:15;100054.52;;;7.14;80.70
77019;BME280;66044;53.142;17.962;2023-12-20T05:18:45;100053.59;;;7.12;80.73
77019;BME280;66044;53.142;17.962;2023-12-20T05:21:11;100051.07;;;7.11;80.91
77019;BME280;66044;53.142;17.962;2023-12-20T05:23:38;100055.62;;;7.08;80.85
77019;BME280;66044;53.142;17.962;2023-12-20T05:26:04;100051.84;;;7.05;80.88
77019;BME280;66044;53.142;17.962;2023-12-20T05:28:31;100045.95;;;7.02;80.61
77019;BME280;66044;53.142;17.962;2023-12-20T05:30:57;100046.27;;;7.00;80.69
77019;BME280;66044;53.142;17.962;2023-12-20T05:33:24;100045.73;;;7.00;80.80
77019;BME280;66044;53.142;17.962;2023-12-20T05:35:51;100047.27;;;7.00;80.88
77019;BME280;66044;53.142;17.962;2023-12-20T05:38:18;100055.39;;;6.99;80.78
77019;BME280;66044;53.142;17.962;2023-12-20T05:40:46;100048.55;;;6.98;80.77
77019;BME280;66044;53.142;17.962;2023-12-20T05:43:12;100049.34;;;6.95;80.95
77019;BME280;66044;53.142;17.962;2023-12-20T05:45:38;100050.66;;;6.92;80.90
77019;BME280;66044;53.142;17.962;2023-12-20T05:48:05;100054.91;;;6.90;81.02
77019;BME280;66044;53.142;17.962;2023-12-20T05:50:32;100052.23;;;6.84;80.53
77019;BME280;66044;53.142;17.962;2023-12-20T05:52:58;100049.76;;;6.80;80.78
77019;BME280;66044;53.142;17.962;2023-12-20T05:55:24;100048.91;;;6.75;80.88
77019;BME280;66044;53.142;17.962;2023-12-20T05:57:51;100049.39;;;6.70;80.98
77019;BME280;66044;53.142;17.962;2023-12-20T06:00:18;100044.86;;;6.65;81.00
77019;BME280;66044;53.142;17.962;2023-12-20T06:02:45;100044.30;;;6.58;80.63
77019;BME280;66044;53.142;17.962;2023-12-20T06:05:11;100040.70;;;6.52;81.04
77019;BME280;66044;53.142;17.962;2023-12-20T06:07:38;100036.45;;;6.46;80.72
77019;BME280;66044;53.142;17.962;2023-12-20T06:10:05;100038.11;;;6.39;80.73
77019;BME280;66044;53.142;17.962;2023-12-20T06:12:32;100037.57;;;6.34;80.98
77019;BME280;66044;53.142;17.962;2023-12-20T06:15:02;100040.90;;;6.30;80.90
77019;BME280;66044;53.142;17.962;2023-12-20T06:17:29;100042.45;;;6.26;81.13
77019;BME280;66044;53.142;17.962;2023-12-20T06:19:57;100045.82;;;6.23;80.70
77019;BME280;66044;53.142;17.962;2023-12-20T06:22:23;100048.37;;;6.17;80.93
77019;BME280;66044;53.142;17.962;2023-12-20T06:24:50;100047.62;;;6.14;81.13
77019;BME280;66044;53.142;17.962;2023-12-20T06:27:16;100046.95;;;6.11;81.04
77019;BME280;66044;53.142;17.962;2023-12-20T06:29:43;100047.23;;;6.09;81.07
77019;BME280;66044;53.142;17.962;2023-12-20T06:32:11;100051.05;;;6.07;81.20
77019;BME280;66044;53.142;17.962;2023-12-20T06:34:37;100054.55;;;6.04;81.09
77019;BME280;66044;53.142;17.962;2023-12-20T06:37:04;100059.25;;;6.02;81.00
77019;BME280;66044;53.142;17.962;2023-12-20T06:39:34;100051.17;;;6.00;80.91
77019;BME280;66044;53.142;17.962;2023-12-20T06:42:01;100052.88;;;5.97;81.12
77019;BME280;66044;53.142;17.962;2023-12-20T06:44:28;100052.61;;;5.95;81.13
77019;BME280;66044;53.142;17.962;2023-12-20T06:46:54;100055.75;;;5.96;81.41
77019;BME280;66044;53.142;17.962;2023-12-20T06:49:20;100053.97;;;5.95;81.32
77019;BME280;66044;53.142;17.962;2023-12-20T06:51:47;100047.23;;;5.94;81.25
77019;BME280;66044;53.142;17.962;2023-12-20T06:54:13;100044.02;;;5.94;81.43
77019;BME280;66044;53.142;17.962;2023-12-20T06:56:40;100046.26;;;5.93;81.23
77019;BME280;66044;53.142;17.962;2023-12-20T06:59:07;100048.70;;;5.93;81.55
77019;BME280;66044;53.142;17.962;2023-12-20T07:01:34;100052.53;;;5.93;81.47
77019;BME280;66044;53.142;17.962;2023-12-20T07:04:00;100052.84;;;5.93;81.38
77019;BME280;66044;53.142;17.962;2023-12-20T07:06:27;100050.02;;;5.92;81.16
77019;BME280;66044;53.142;17.962;2023-12-20T07:08:53;100053.61;;;5.90;81.37
77019;BME280;66044;53.142;17.962;2023-12-20T07:11:19;100058.09;;;5.90;81.27
77019;BME280;66044;53.142;17.962;2023-12-20T07:13:46;100058.27;;;5.90;81.23
77019;BME280;66044;53.142;17.962;2023-12-20T07:16:12;100057.36;;;5.88;81.30
77019;BME280;66044;53.142;17.962;2023-12-20T07:18:39;100069.88;;;5.85;81.19
77019;BME280;66044;53.142;17.962;2023-12-20T07:21:05;100071.98;;;5.84;81.30
77019;BME280;66044;53.142;17.962;2023-12-20T07:23:34;100076.33;;;5.83;81.23
77019;BME280;66044;53.142;17.962;2023-12-20T07:26:00;100074.08;;;5.81;81.09
77019;BME280;66044;53.142;17.962;2023-12-20T07:28:27;100076.86;;;5.79;81.25
77019;BME280;66044;53.142;17.962;2023-12-20T07:30:53;100077.18;;;5.77;81.14
77019;BME280;66044;53.142;17.962;2023-12-20T07:33:20;100078.02;;;5.76;81.26
77019;BME280;66044;53.142;17.962;2023-12-20T07:35:46;100074.63;;;5.75;80.95
77019;BME280;66044;53.142;17.962;2023-12-20T07:38:12;100075.22;;;5.75;80.82
77019;BME280;66044;53.142;17.962;2023-12-20T07:40:39;100078.31;;;5.74;80.87
77019;BME280;66044;53.142;17.962;2023-12-20T07:43:05;100074.30;;;5.73;80.68
77019;BME280;66044;53.142;17.962;2023-12-20T07:45:32;100074.46;;;5.73;80.79
77019;BME280;66044;53.142;17.962;2023-12-20T07:47:58;100075.96;;;5.73;80.67
77019;BME280;66044;53.142;17.962;2023-12-20T07:50:25;100083.53;;;5.75;80.62
77019;BME280;66044;53.142;17.962;2023-12-20T07:52:52;100083.68;;;5.77;80.45
77019;BME280;66044;53.142;17.962;2023-12-20T07:55:20;100074.16;;;5.80;80.34
77019;BME280;66044;53.142;17.962;2023-12-20T07:57:46;100072.80;;;5.81;80.31
77019;BME280;66044;53.142;17.962;2023-12-20T08:00:13;100076.27;;;5.83;80.43
77019;BME280;66044;53.142;17.962;2023-12-20T08:02:40;100081.83;;;5.85;80.13
77019;BME280;66044;53.142;17.962;2023-12-20T08:05:06;100084.05;;;5.84;79.97
77019;BME280;66044;53.142;17.962;2023-12-20T08:07:33;100082.76;;;5.86;79.89
77019;BME280;66044;53.142;17.962;2023-12-20T08:09:59;100079.30;;;5.91;80.10
77019;BME280;66044;53.142;17.962;2023-12-20T08:12:26;100078.90;;;5.95;79.95
77019;BME280;66044;53.142;17.962;2023-12-20T08:14:54;100071.65;;;6.01;79.93
77019;BME280;66044;53.142;17.962;2023-12-20T08:17:21;100071.45;;;6.12;80.04
77019;BME280;66044;53.142;17.962;2023-12-20T08:19:47;100071.23;;;6.22;79.96
77019;BME280;66044;53.142;17.962;2023-12-20T08:22:13;100072.61;;;6.27;79.72
77019;BME280;66044;53.142;17.962;2023-12-20T08:24:40;100067.75;;;6.32;79.55
77019;BME280;66044;53.142;17.962;2023-12-20T08:27:06;100064.38;;;6.40;79.64
77019;BME280;66044;53.142;17.962;2023-12-20T08:29:33;100067.15;;;6.54;79.31
77019;BME280;66044;53.142;17.962;2023-12-20T08:31:59;100065.77;;;6.71;79.39
77019;BME280;66044;53.142;17.962;2023-12-20T08:34:26;100063.99;;;6.83;79.20
77019;BME280;66044;53.142;17.962;2023-12-20T08:36:53;100065.99;;;6.88;78.88
77019;BME280;66044;53.142;17.962;2023-12-20T08:39:20;100071.77;;;6.90;78.74
77019;BME280;66044;53.142;17.962;2023-12-20T08:41:46;100064.33;;;6.90;78.42
77019;BME280;66044;53.142;17.962;2023-12-20T08:44:13;100065.36;;;6.88;78.58
77019;BME280;66044;53.142;17.962;2023-12-20T08:46:39;100067.45;;;6.82;78.48
77019;BME280;66044;53.142;17.962;2023-12-20T08:49:06;100062.86;;;6.76;78.74
77019;BME280;66044;53.142;17.962;2023-12-20T08:51:32;100059.75;;;6.70;78.43
77019;BME280;66044;53.142;17.962;2023-12-20T08:53:59;100059.06;;;6.57;78.34
77019;BME280;66044;53.142;17.962;2023-12-20T08:56:26;100058.24;;;6.51;78.55
77019;BME280;66044;53.142;17.962;2023-12-20T08:58:52;100054.22;;;6.50;78.39
77019;BME280;66044;53.142;17.962;2023-12-20T09:01:19;100054.24;;;6.47;78.42
77019;BME280;66044;53.142;17.962;2023-12-20T09:03:45;100055.31;;;6.42;78.30
77019;BME280;66044;53.142;17.962;2023-12-20T09:06:12;100056.09;;;6.41;78.33
77019;BME280;66044;53.142;17.962;2023-12-20T09:08:38;100051.14;;;6.47;78.61
77019;BME280;66044;53.142;17.962;2023-12-20T09:11:04;100046.19;;;6.52;78.42
77019;BME280;66044;53.142;17.962;2023-12-20T09:13:31;100044.09;;;6.53;78.20
77019;BME280;66044;53.142;17.962;2023-12-20T09:15:58;100037.39;;;6.54;78.00
77019;BME280;66044;53.142;17.962;2023-12-20T09:18:24;100036.86;;;6.61;77.98
77019;BME280;66044;53.142;17.962;2023-12-20T09:20:51;100036.60;;;6.74;78.09
77019;BME280;66044;53.142;17.962;2023-12-20T09:23:17;100035.06;;;6.82;77.71
77019;BME280;66044;53.142;17.962;2023-12-20T09:25:44;100033.04;;;6.94;77.99
77019;BME280;66044;53.142;17.962;2023-12-20T09:28:10;100028.85;;;7.26;77.43
77019;BME280;66044;53.142;17.962;2023-12-20T09:30:37;100032.06;;;7.44;77.04
77019;BME280;66044;53.142;17.962;2023-12-20T09:33:06;100030.13;;;7.49;77.10
77019;BME280;66044;53.142;17.962;2023-12-20T09:35:33;100029.92;;;7.45;76.46
77019;BME280;66044;53.142;17.962;2023-12-20T09:38:00;100032.73;;;7.41;76.78
77019;BME280;66044;53.142;17.962;2023-12-20T09:40:26;100035.36;;;7.46;76.41
77019;BME280;66044;53.142;17.962;2023-12-20T09:42:56;100034.59;;;7.57;76.45
77019;BME280;66044;53.142;17.962;2023-12-20T09:45:23;100028.05;;;7.56;76.01
77019;BME280;66044;53.142;17.962;2023-12-20T09:47:52;100024.06;;;7.61;76.05
77019;BME280;66044;53.142;17.962;2023-12-20T09:50:20;100016.17;;;7.68;75.83
77019;BME280;66044;53.142;17.962;2023-12-20T09:52:52;100009.68;;;7.72;75.41
77019;BME280;66044;53.142;17.962;2023-12-20T09:55:19;99994.64;;;7.78;75.10
77019;BME280;66044;53.142;17.962;2023-12-20T09:57:48;99990.70;;;7.81;74.93
77019;BME280;66044;53.142;17.962;2023-12-20T10:00:15;99989.48;;;7.89;74.78
77019;BME280;66044;53.142;17.962;2023-12-20T10:02:50;99989.94;;;7.97;74.61
77019;BME280;66044;53.142;17.962;2023-12-20T10:05:27;99987.36;;;7.97;74.21
77019;BME280;66044;53.142;17.962;2023-12-20T10:07:56;99982.95;;;8.03;74.11
77019;BME280;66044;53.142;17.962;2023-12-20T10:10:23;99984.34;;;8.14;73.90
77019;BME280;66044;53.142;17.962;2023-12-20T10:13:04;99979.21;;;8.23;73.52
77019;BME280;66044;53.142;17.962;2023-12-20T10:15:34;99978.50;;;8.34;73.30
77019;BME280;66044;53.142;17.962;2023-12-20T10:18:02;99978.42;;;8.40;73.13
77019;BME280;66044;53.142;17.962;2023-12-20T10:20:29;99973.31;;;8.30;72.76
77019;BME280;66044;53.142;17.962;2023-12-20T10:22:57;99961.79;;;8.19;72.79
77019;BME280;66044;53.142;17.962;2023-12-20T10:25:24;99961.19;;;8.10;73.12
77019;BME280;66044;53.142;17.962;2023-12-20T10:28:09;99957.23;;;8.04;73.32
77019;BME280;66044;53.142;17.962;2023-12-20T10:30:37;99953.57;;;7.93;73.35
77019;BME280;66044;53.142;17.962;2023-12-20T10:33:08;99951.75;;;7.83;73.42
77019;BME280;66044;53.142;17.962;2023-12-20T10:35:35;99944.59;;;7.75;73.14
77019;BME280;66044;53.142;17.962;2023-12-20T10:38:06;99939.66;;;7.68;73.40
77019;BME280;66044;53.142;17.962;2023-12-20T10:40:35;99931.48;;;7.64;73.46
77019;BME280;66044;53.142;17.962;2023-12-20T10:43:03;99932.80;;;7.59;73.54
77019;BME280;66044;53.142;17.962;2023-12-20T10:45:30;99930.73;;;7.54;73.30
77019;BME280;66044;53.142;17.962;2023-12-20T10:47:57;99925.24;;;7.45;73.47
77019;BME280;66044;53.142;17.962;2023-12-20T10:50:27;99923.94;;;7.36;73.67
77019;BME280;66044;53.142;17.962;2023-12-20T10:52:55;99920.08;;;7.30;73.59
77019;BME280;66044;53.142;17.962;2023-12-20T10:55:23;99917.73;;;7.25;73.55
77019;BME280;66044;53.142;17.962;2023-12-20T10:57:54;99913.94;;;7.17;73.68
77019;BME280;66044;53.142;17.962;2023-12-20T11:00:28;99914.18;;;7.11;74.26
77019;BME280;66044;53.142;17.962;2023-12-20T11:03:00;99909.38;;;7.07;73.94
77019;BME280;66044;53.142;17.962;2023-12-20T11:08:57;99896.77;;;6.98;74.42
77019;BME280;66044;53.142;17.962;2023-12-20T11:11:59;99889.44;;;6.96;74.40
77019;BME280;66044;53.142;17.962;2023-12-20T11:14:42;99877.88;;;6.94;74.67
77019;BME280;66044;53.142;17.962;2023-12-20T11:17:12;99875.10;;;6.90;74.47
77019;BME280;66044;53.142;17.962;2023-12-20T11:22:28;99861.90;;;6.77;74.44
77019;BME280;66044;53.142;17.962;2023-12-20T11:25:04;99860.02;;;6.71;74.63
77019;BME280;66044;53.142;17.962;2023-12-20T11:27:30;99850.73;;;6.70;74.62
77019;BME280;66044;53.142;17.962;2023-12-20T11:29:58;99841.78;;;6.68;74.72
77019;BME280;66044;53.142;17.962;2023-12-20T11:34:57;99837.17;;;6.67;74.80
77019;BME280;66044;53.142;17.962;2023-12-20T11:37:51;99829.71;;;6.68;74.88
77019;BME280;66044;53.142;17.962;2023-12-20T11:40:18;99822.70;;;6.68;74.80
77019;BME280;66044;53.142;17.962;2023-12-20T11:42:45;99819.55;;;6.67;75.06
77019;BME280;66044;53.142;17.962;2023-12-20T11:45:15;99817.45;;;6.68;75.44
77019;BME280;66044;53.142;17.962;2023-12-20T11:47:48;99812.70;;;6.69;75.29
77019;BME280;66044;53.142;17.962;2023-12-20T11:50:20;99809.48;;;6.71;75.35
77019;BME280;66044;53.142;17.962;2023-12-20T11:52:51;99803.71;;;6.72;75.43
77019;BME280;66044;53.142;17.962;2023-12-20T11:55:18;99802.25;;;6.69;75.55
77019;BME280;66044;53.142;17.962;2023-12-20T11:57:45;99796.86;;;6.68;75.52
77019;BME280;66044;53.142;17.962;2023-12-20T12:00:13;99793.24;;;6.66;75.63
77019;BME280;66044;53.142;17.962;2023-12-20T12:02:39;99786.69;;;6.64;75.68
77019;BME280;66044;53.142;17.962;2023-12-20T12:05:06;99780.30;;;6.62;75.68
77019;BME280;66044;53.142;17.962;2023-12-20T12:07:34;99773.73;;;6.59;75.66
77019;BME280;66044;53.142;17.962;2023-12-20T12:10:01;99775.02;;;6.59;75.96
77019;BME280;66044;53.142;17.962;2023-12-20T12:12:29;99772.76;;;6.59;75.90
77019;BME280;66044;53.142;17.962;2023-12-20T12:14:59;99769.85;;;6.62;76.39
77019;BME280;66044;53.142;17.962;2023-12-20T12:17:26;99766.71;;;6.61;75.76
77019;BME280;66044;53.142;17.962;2023-12-20T12:20:02;99763.77;;;6.60;76.20
77019;BME280;66044;53.142;17.962;2023-12-20T12:22:29;99757.80;;;6.59;76.34
77019;BME280;66044;53.142;17.962;2023-12-20T12:24:59;99753.50;;;6.59;76.01
77019;BME280;66044;53.142;17.962;2023-12-20T12:27:27;99750.09;;;6.57;76.27
77019;BME280;66044;53.142;17.962;2023-12-20T12:30:04;99745.45;;;6.57;76.15
77019;BME280;66044;53.142;17.962;2023-12-20T12:32:36;99743.19;;;6.56;76.28
77019;BME280;66044;53.142;17.962;2023-12-20T12:35:04;99738.98;;;6.54;76.27
77019;BME280;66044;53.142;17.962;2023-12-20T12:37:34;99736.53;;;6.52;76.65
77019;BME280;66044;53.142;17.962;2023-12-20T12:40:01;99734.89;;;6.47;76.61
77019;BME280;66044;53.142;17.962;2023-12-20T12:42:28;99727.91;;;6.42;76.61
77019;BME280;66044;53.142;17.962;2023-12-20T12:44:55;99726.48;;;6.39;76.45
77019;BME280;66044;53.142;17.962;2023-12-20T12:47:22;99719.78;;;6.37;76.75
77019;BME280;66044;53.142;17.962;2023-12-20T12:49:51;99718.74;;;6.36;76.50
77019;BME280;66044;53.142;17.962;2023-12-20T12:52:18;99712.41;;;6.34;76.83
77019;BME280;66044;53.142;17.962;2023-12-20T12:54:44;99708.40;;;6.30;76.64
77019;BME280;66044;53.142;17.962;2023-12-20T12:57:11;99703.69;;;6.29;77.22
77019;BME280;66044;53.142;17.962;2023-12-20T12:59:38;99703.85;;;6.27;77.05
77019;BME280;66044;53.142;17.962;2023-12-20T13:02:04;99708.80;;;6.24;77.12